This is the latest recevied weather packets stored in our database for station/object VE3VGJ. If no packets are shown the sender has not sent any weather packets the latest 10 day(s).
| Time | Temp. | Humidity | Pressure | Rain* | Wind** | Luminosity | Snow |
|---|---|---|---|---|---|---|---|
| 1777670722 | 8.33° C | 61% | 1011.6 hPa | 0 mm | - | 223 W/m² | - |
| 1777670420 | 8.89° C | 60% | 1011.7 hPa | 0 mm | - | 229 W/m² | - |
| 1777670116 | 8.89° C | 58% | 1011.5 hPa | 0 mm | - | 245 W/m² | - |
| 1777669815 | 8.89° C | 57% | 1011.6 hPa | 0 mm | - | 257 W/m² | - |
| 1777669510 | 8.89° C | 57% | 1011.6 hPa | 0 mm | - | 302 W/m² | - |
| 1777669207 | 8.89° C | 58% | 1011.5 hPa | 0 mm | - | 452 W/m² | - |
| 1777668904 | 9.44° C | 58% | 1011.3 hPa | 0 mm | - | 385 W/m² | - |
| 1777668602 | 8.89° C | 57% | 1011.3 hPa | 0 mm | - | 606 W/m² | - |
| 1777668297 | 8.89° C | 59% | 1011.5 hPa | 0 mm | - | 440 W/m² | - |
| 1777667994 | 8.89° C | 55% | 1011.5 hPa | 0 mm | - | 326 W/m² | - |
| 1777667690 | 9.44° C | 55% | 1011.5 hPa | 0 mm | - | 438 W/m² | - |
| 1777667388 | 10.56° C | 52% | 1011.6 hPa | 0 mm | - | 464 W/m² | - |
| 1777667084 | 10.56° C | 49% | 1011.4 hPa | 0 mm | - | 688 W/m² | - |
| 1777666781 | 10° C | 53% | 1011.4 hPa | 0 mm | - | 732 W/m² | - |
| 1777666478 | 9.44° C | 52% | 1011.6 hPa | 0 mm | - | 798 W/m² | - |
| 1777666175 | 10° C | 46% | 1011.5 hPa | 0 mm | - | 364 W/m² | - |
| 1777665872 | 10° C | 50% | 1011.4 hPa | 0 mm | - | 609 W/m² | - |
| 1777665570 | 9.44° C | 49% | 1011.6 hPa | 0 mm | - | 698 W/m² | - |
| 1777665266 | 9.44° C | 48% | 1011.4 hPa | 0 mm | - | 546 W/m² | - |
| 1777664962 | 9.44° C | 46% | 1011.5 hPa | 0 mm | - | 465 W/m² | - |
| 1777664658 | 10° C | 45% | 1011.5 hPa | 0 mm | - | 831 W/m² | - |
| 1777664354 | 9.44° C | 52% | 1011.6 hPa | 0 mm | - | 789 W/m² | - |
| 1777664053 | 9.44° C | 49% | 1011.6 hPa | 0 mm | - | 681 W/m² | - |
| 1777663750 | 10° C | 47% | 1011.7 hPa | 0 mm | - | 782 W/m² | - |
| 1777663447 | 8.89° C | 52% | 1012 hPa | 0 mm | - | 672 W/m² | - |
* Rain latest hour (hover to see other rain measurements)
** Current wind speed in m/s (hover to see current wind gust speed)